Aviation Digital Data Service (ADDS)

Output produced by METARs form (0153 UTC 22 June 2018)
found at http://www.aviationweather.gov/adds/metars/
 
KPAE 220053Z 21013KT 10SM CLR 19/12 A3013 RMK AO2 SLP203 T01890117
KPAE 212347Z 2200/2224 20009KT P6SM SCT025 
     FM220100 27008KT P6SM SCT040 
     FM220800 17007KT P6SM OVC012 
     FM221800 20008KT P6SM OVC020 
     FM222100 24008KT P6SM OVC030
       
KAWO 220056Z AUTO 21008KT 10SM CLR 21/12 A3012 RMK AO2 SLP202 T02110122
KBFI 220053Z 22007KT 170V260 10SM SCT035 20/12 A3012 RMK AO2 SLP199 T02000117 $
KBFI 212347Z 2200/2224 18006KT P6SM BKN035 
     FM220100 19006KT P6SM SCT040 
     FM220800 19007KT P6SM OVC019 
     FM221800 21009KT P6SM OVC020 
     FM222100 22009KT P6SM OVC030
       
KRNT 220053Z VRB06KT 10SM BKN034 21/12 A3012 RMK AO2 SLP204 T02060117
KSEA 220053Z 24007KT 10SM SCT034 SCT250 20/12 A3013 RMK AO2 SLP208 T02000117
KSEA 212347Z 2200/2306 22009KT P6SM OVC030 
     FM220100 21009KT P6SM SCT035 
     FM220700 20008KT P6SM OVC015 
     FM221800 21010KT P6SM OVC020 
     FM222100 22010KT P6SM OVC030 
     FM230100 29008KT P6SM BKN035 OVC045